Milton, North Carolina
Current Conditions -  °F | °C
As of 3:53 AM on Wednesday 28 Jan 2015 (Local Time) from KDAN Reporting Station
Few Clouds Few Clouds  
Wind Chill: 18°   Ceiling: Unl
Heat Index: 27°   Visibility: 10mi
Dew Point: 13°   Wind: 9mph
Humidity: 56%   Direction: 340°NNW
Pressure: 30.09"   Gusts: NA
Location:  36.54°N, 79.21°W
Report Text: KDAN 280853Z AUTO 34008KT 10SM FEW060 M03/M11 A3009 RMK AO2 SLP187 T10281106 53018
Loading
Personal Weather Stations






























Interactive Weather Map New forecast layout! Learn more

10-Day Weather Forecast

Advertisements
Track Severe Weather on mobile